Moody, Missouri
Current Conditions -  °F | °C
As of 9:53 AM on Sunday 21 Dec 2014 (Local Time) from KUNO Reporting Station
Overcast Overcast  
Wind Chill: 33°   Ceiling: 2600
Heat Index: 38°   Visibility: 8mi
Dew Point: 34°   Wind: 6mph
Humidity: 86%   Direction: 150°SSE
Pressure: 30.16"   Gusts: NA
Location:  36.53°N, 91.99°W
Report Text: KUNO 211553Z AUTO 15005KT 8SM FEW008 OVC026 03/01 A3016 RMK AO2 SLP217 T00330011 $
Loading
Personal Weather Stations






























Interactive Weather Map New forecast layout! Learn more

10-Day Weather Forecast

Advertisements
Track Severe Weather on mobile